Time;durP1;ratioP1;P1;durP2;ratioP2;P2;SDS_P1;SDS_P2;PMS_P1;PMS_P2;Temp;Humidity;BMP_temperature;BMP_pressure;BME280_temperature;BME280_humidity;BME280_pressure;Samples;Min_cycle;Max_cycle;Signal;HPM_P1;HPM_P2
2022/01/31 00:00:59;;;;;;;25.88;5.03;;;4.40;99.90;;;;;;5049494;28;20044;-76
2022/01/31 00:03:24;;;;;;;22.55;4.60;;;4.30;99.90;;;;;;5050019;28;20049;-76
2022/01/31 00:05:50;;;;;;;21.65;4.13;;;4.30;99.90;;;;;;5050029;28;20032;-76
2022/01/31 00:08:21;;;;;;;19.73;5.13;;;4.40;99.90;;;;;;5054149;28;20124;-76
2022/01/31 00:10:48;;;;;;;18.65;3.90;;;4.30;99.90;;;;;;5022083;28;20080;-76
2022/01/31 00:13:19;;;;;;;16.40;4.45;;;4.30;99.90;;;;;;5030827;28;20060;-76
2022/01/31 00:15:52;;;;;;;14.73;4.07;;;4.30;99.90;;;;;;5051181;28;20037;-76
2022/01/31 00:18:18;;;;;;;19.10;4.25;;;4.20;99.90;;;;;;5046368;28;20049;-76
2022/01/31 00:20:43;;;;;;;20.05;4.63;;;4.10;99.90;;;;;;5035021;28;20060;-76
2022/01/31 00:23:09;;;;;;;20.38;4.28;;;4.20;99.90;;;;;;5054188;28;20037;-76
2022/01/31 00:25:34;;;;;;;22.27;5.10;;;4.20;99.90;;;;;;5056759;28;20399;-76
2022/01/31 00:28:00;;;;;;;14.45;4.25;;;4.20;99.90;;;;;;5036454;28;20059;-76
2022/01/31 00:30:26;;;;;;;17.02;4.80;;;4.10;99.90;;;;;;5050432;28;20124;-76
2022/01/31 00:32:51;;;;;;;19.05;5.13;;;4.20;99.90;;;;;;5049218;28;20036;-76
2022/01/31 00:35:17;;;;;;;23.17;5.07;;;4.20;99.90;;;;;;5055064;28;20060;-75
2022/01/31 00:37:42;;;;;;;25.60;5.40;;;4.10;99.90;;;;;;5068880;28;20102;-76
2022/01/31 00:40:09;;;;;;;22.95;4.82;;;4.10;99.90;;;;;;5049959;28;20041;-76
2022/01/31 00:42:35;;;;;;;18.10;5.30;;;4.20;99.90;;;;;;5054156;28;20033;-76
2022/01/31 00:45:18;;;;;;;16.73;4.47;;;4.20;99.90;;;;;;5047913;28;20063;-76
2022/01/31 00:47:50;;;;;;;20.92;5.50;;;4.20;99.90;;;;;;5043382;28;20052;-76
2022/01/31 00:50:18;;;;;;;19.92;5.40;;;4.20;99.90;;;;;;5054621;28;20557;-76
2022/01/31 00:52:45;;;;;;;24.15;5.47;;;4.20;99.90;;;;;;5053376;28;20434;-76
2022/01/31 00:55:12;;;;;;;15.88;4.97;;;4.20;99.90;;;;;;5054613;28;20415;-76
2022/01/31 00:57:40;;;;;;;20.48;6.03;;;4.20;99.90;;;;;;5053784;28;20056;-76
2022/01/31 01:00:06;;;;;;;19.73;6.32;;;4.30;99.90;;;;;;5053832;28;20049;-76
2022/01/31 01:02:32;;;;;;;21.35;5.63;;;4.30;99.90;;;;;;5053889;28;20071;-76
2022/01/31 01:04:57;;;;;;;14.43;5.53;;;4.30;99.90;;;;;;5052014;28;20069;-76
2022/01/31 01:07:23;;;;;;;20.35;7.03;;;4.30;99.90;;;;;;5037224;28;20040;-76
2022/01/31 01:09:49;;;;;;;21.13;6.93;;;4.40;99.90;;;;;;5054830;28;20041;-76
2022/01/31 01:12:17;;;;;;;18.15;6.40;;;4.30;99.90;;;;;;5059022;28;20831;-76
2022/01/31 01:14:44;;;;;;;19.05;7.10;;;4.40;99.90;;;;;;5053149;28;20044;-76
2022/01/31 01:17:09;;;;;;;23.60;6.85;;;4.30;99.90;;;;;;5037897;28;20123;-76
2022/01/31 01:19:35;;;;;;;19.30;7.78;;;4.30;99.90;;;;;;5052556;28;20124;-76
2022/01/31 01:22:01;;;;;;;14.55;5.90;;;4.30;99.90;;;;;;5053762;28;20044;-76
2022/01/31 01:24:27;;;;;;;17.42;7.03;;;4.40;99.90;;;;;;5053951;28;20386;-76
2022/01/31 01:26:53;;;;;;;19.65;7.45;;;4.40;99.90;;;;;;5053913;28;20036;-76
2022/01/31 01:29:20;;;;;;;18.08;7.75;;;4.30;99.90;;;;;;5053989;28;20103;-76
2022/01/31 01:31:47;;;;;;;22.13;8.25;;;4.30;99.90;;;;;;5036605;28;20033;-76
2022/01/31 01:34:13;;;;;;;23.65;8.25;;;4.40;99.90;;;;;;5054180;28;20053;-77
2022/01/31 01:36:41;;;;;;;22.27;9.38;;;4.40;99.90;;;;;;5043269;28;20049;-76
2022/01/31 01:39:06;;;;;;;19.35;8.10;;;4.40;99.90;;;;;;5047492;28;20099;-76
2022/01/31 01:41:32;;;;;;;18.98;10.02;;;4.40;99.90;;;;;;5047076;28;20032;-76
2022/01/31 01:43:58;;;;;;;25.90;9.05;;;4.30;99.90;;;;;;5053466;28;20110;-76
2022/01/31 01:46:23;;;;;;;22.23;10.27;;;4.40;99.90;;;;;;5063497;28;20120;-76
2022/01/31 01:48:49;;;;;;;31.52;10.35;;;4.40;99.90;;;;;;5049398;28;20079;-76
2022/01/31 01:51:15;;;;;;;23.52;10.60;;;4.30;99.90;;;;;;5053603;28;20043;-77
2022/01/31 01:53:41;;;;;;;20.80;10.88;;;4.40;99.90;;;;;;5053524;28;20045;-77
2022/01/31 01:56:07;;;;;;;20.17;10.23;;;4.30;99.90;;;;;;5039420;28;20045;-76
2022/01/31 01:58:40;;;;;;;22.90;12.73;;;4.30;99.90;;;;;;5041892;28;20037;-77
2022/01/31 02:01:07;;;;;;;23.60;13.38;;;4.30;99.90;;;;;;5040650;28;20053;-77
2022/01/31 02:03:35;;;;;;;23.50;12.65;;;4.30;99.90;;;;;;5046577;28;20037;-76
2022/01/31 02:06:01;;;;;;;17.50;10.70;;;4.20;99.90;;;;;;5019961;28;20080;-77
2022/01/31 02:08:28;;;;;;;21.48;12.63;;;4.20;99.90;;;;;;5053489;28;20045;-76
2022/01/31 02:10:54;;;;;;;21.52;12.40;;;4.30;99.90;;;;;;5054269;28;20047;-76
2022/01/31 02:13:20;;;;;;;24.40;13.15;;;4.20;99.90;;;;;;5054274;28;20044;-75
2022/01/31 02:15:51;;;;;;;20.55;12.27;;;4.20;99.90;;;;;;5053893;28;20037;-76
2022/01/31 02:18:18;;;;;;;19.42;12.85;;;4.20;99.90;;;;;;5053845;28;20045;-76
2022/01/31 02:20:44;;;;;;;21.58;13.40;;;4.00;99.90;;;;;;5033638;28;20063;-75
2022/01/31 02:23:11;;;;;;;22.45;12.98;;;4.00;99.90;;;;;;5053135;28;20666;-75
2022/01/31 02:26:01;;;;;;;19.05;12.63;;;4.00;99.90;;;;;;5036668;28;20037;-75
2022/01/31 02:28:28;;;;;;;16.25;11.90;;;4.00;99.90;;;;;;5026526;28;20124;-75
2022/01/31 02:30:54;;;;;;;19.40;12.68;;;4.00;99.90;;;;;;5052323;28;20118;-75
2022/01/31 02:33:21;;;;;;;17.92;12.98;;;3.90;99.90;;;;;;5052092;28;20394;-75
2022/01/31 02:35:48;;;;;;;20.05;14.45;;;3.90;99.90;;;;;;5040539;28;20061;-75
2022/01/31 02:38:14;;;;;;;21.63;14.05;;;3.90;99.90;;;;;;5052284;28;20095;-75
2022/01/31 02:40:40;;;;;;;19.63;13.32;;;3.90;99.90;;;;;;5052035;28;20095;-75
2022/01/31 02:43:06;;;;;;;21.25;14.65;;;3.90;99.90;;;;;;5052743;28;20037;-75
2022/01/31 02:45:32;;;;;;;20.98;13.60;;;3.90;99.90;;;;;;5052034;28;20047;-75
2022/01/31 02:48:00;;;;;;;19.02;14.02;;;3.90;99.90;;;;;;5052594;28;20040;-75
2022/01/31 02:50:26;;;;;;;18.85;12.90;;;4.00;99.90;;;;;;5060881;22;20056;-74
2022/01/31 02:53:09;;;;;;;17.55;12.63;;;3.90;99.90;;;;;;5068797;28;20048;-74
2022/01/31 02:55:34;;;;;;;18.30;12.98;;;4.00;99.90;;;;;;5067287;28;20497;-74
2022/01/31 02:58:00;;;;;;;16.95;12.90;;;4.00;99.90;;;;;;5070004;28;20119;-74
2022/01/31 03:00:26;;;;;;;15.68;11.77;;;4.00;99.90;;;;;;5049229;28;20044;-74
2022/01/31 03:02:51;;;;;;;16.05;11.05;;;4.00;99.90;;;;;;5056712;28;20037;-74
2022/01/31 03:05:17;;;;;;;12.43;9.75;;;4.10;99.90;;;;;;5052896;28;20119;-74
2022/01/31 03:07:42;;;;;;;13.93;9.77;;;4.00;99.90;;;;;;5067720;28;20491;-74
2022/01/31 03:10:08;;;;;;;12.65;9.85;;;4.10;99.90;;;;;;5068811;28;20402;-74
2022/01/31 03:12:34;;;;;;;11.70;8.57;;;4.10;99.90;;;;;;5064678;28;20490;-74
2022/01/31 03:14:59;;;;;;;12.52;9.07;;;4.10;99.90;;;;;;5073804;28;20040;-74
2022/01/31 03:17:25;;;;;;;10.68;9.05;;;4.10;99.90;;;;;;5070318;28;20036;-74
2022/01/31 03:19:53;;;;;;;15.07;8.90;;;4.10;99.90;;;;;;5051954;28;20427;-74
2022/01/31 03:22:20;;;;;;;11.30;9.10;;;4.10;99.90;;;;;;5069507;28;20536;-74
2022/01/31 03:24:47;;;;;;;15.75;9.23;;;4.10;99.90;;;;;;5069433;28;20040;-74
2022/01/31 03:27:13;;;;;;;12.60;9.35;;;4.10;99.90;;;;;;5075720;28;20102;-74
2022/01/31 03:29:39;;;;;;;12.25;9.18;;;4.10;99.90;;;;;;5052553;28;20093;-74
2022/01/31 03:32:05;;;;;;;13.20;9.70;;;4.10;99.90;;;;;;5070352;28;20047;-74
2022/01/31 03:34:30;;;;;;;11.40;9.10;;;4.10;99.90;;;;;;5066525;28;20032;-74
2022/01/31 03:36:56;;;;;;;12.50;9.30;;;4.10;99.90;;;;;;5053523;28;20115;-74
2022/01/31 03:39:22;;;;;;;13.23;9.05;;;4.00;99.90;;;;;;5048415;28;20099;-74
2022/01/31 03:41:47;;;;;;;11.20;8.98;;;4.10;99.90;;;;;;5069604;28;20052;-74
2022/01/31 03:44:13;;;;;;;13.90;8.93;;;4.10;99.90;;;;;;5052705;28;20040;-74
2022/01/31 03:46:38;;;;;;;10.45;7.22;;;4.20;99.90;;;;;;5069053;28;20068;-74
2022/01/31 03:49:04;;;;;;;14.40;8.50;;;4.30;99.90;;;;;;5067507;28;20090;-74
2022/01/31 03:51:30;;;;;;;11.70;6.22;;;4.30;99.90;;;;;;5068880;28;20060;-74
2022/01/31 03:53:56;;;;;;;12.50;7.43;;;4.40;99.90;;;;;;5067142;28;20053;-74
2022/01/31 03:56:22;;;;;;;9.88;6.88;;;4.50;99.90;;;;;;5067550;28;20053;-74
2022/01/31 03:58:48;;;;;;;11.35;6.35;;;4.50;99.90;;;;;;5063200;28;20543;-74
2022/01/31 04:01:14;;;;;;;12.73;6.00;;;4.60;99.90;;;;;;5052714;28;20040;-74
2022/01/31 04:03:40;;;;;;;15.63;6.20;;;4.60;99.90;;;;;;5049258;28;20139;-74
2022/01/31 04:06:05;;;;;;;14.25;5.65;;;4.70;99.90;;;;;;5068301;28;20124;-74
2022/01/31 04:08:31;;;;;;;16.20;4.97;;;4.80;99.90;;;;;;5067061;28;20033;-74
2022/01/31 04:10:57;;;;;;;20.48;4.53;;;4.90;99.90;;;;;;5069378;28;20386;-74
2022/01/31 04:13:22;;;;;;;20.10;4.72;;;5.20;99.90;;;;;;5067281;28;20051;-73
2022/01/31 04:15:48;;;;;;;17.75;4.47;;;5.30;99.90;;;;;;5065728;28;20147;-74
2022/01/31 04:18:14;;;;;;;17.27;3.55;;;5.40;99.90;;;;;;5051751;28;20052;-74
2022/01/31 04:20:40;;;;;;;18.70;3.72;;;5.60;99.90;;;;;;5051488;28;20044;-74
2022/01/31 04:23:11;;;;;;;21.15;3.20;;;5.60;99.90;;;;;;5063981;28;20049;-73
2022/01/31 04:28:21;;;;;;;18.08;3.60;;;5.70;99.90;;;;;;5065532;28;20048;-73
2022/01/31 04:30:57;;;;;;;16.73;3.70;;;5.80;99.90;;;;;;5068911;28;20068;-73
2022/01/31 04:33:23;;;;;;;7.95;2.28;;;5.80;99.90;;;;;;5066255;28;20489;-74
2022/01/31 04:35:49;;;;;;;17.83;3.30;;;5.90;99.90;;;;;;5038422;28;20053;-74
2022/01/31 04:38:14;;;;;;;15.82;2.95;;;5.90;99.90;;;;;;5054835;28;20051;-75
2022/01/31 04:40:40;;;;;;;14.02;2.33;;;5.90;99.90;;;;;;5064493;28;20115;-74
2022/01/31 04:43:06;;;;;;;9.15;2.10;;;5.90;99.90;;;;;;5051365;28;20068;-73
2022/01/31 04:45:31;;;;;;;13.05;2.35;;;5.80;99.90;;;;;;5064020;28;20043;-72
2022/01/31 04:47:57;;;;;;;13.68;2.47;;;5.70;99.90;;;;;;5069359;28;20466;-74
2022/01/31 04:50:23;;;;;;;7.53;1.77;;;5.50;99.90;;;;;;5066487;28;20060;-74
2022/01/31 04:52:48;;;;;;;11.48;2.25;;;5.50;99.90;;;;;;5065164;28;20044;-74
2022/01/31 04:55:14;;;;;;;11.13;2.53;;;5.40;99.90;;;;;;5071337;28;20462;-74
2022/01/31 04:57:40;;;;;;;18.75;2.60;;;5.40;99.90;;;;;;5056264;28;20252;-74
2022/01/31 05:00:08;;;;;;;12.88;2.67;;;5.20;99.90;;;;;;5072401;28;20115;-74
2022/01/31 05:02:34;;;;;;;15.80;2.53;;;5.20;99.90;;;;;;5068423;28;20409;-74
2022/01/31 05:05:00;;;;;;;13.38;2.42;;;5.20;99.90;;;;;;5071374;28;20094;-74
2022/01/31 05:07:25;;;;;;;19.25;3.28;;;5.20;99.90;;;;;;5041091;28;20036;-74
2022/01/31 05:09:51;;;;;;;10.50;2.70;;;5.10;99.90;;;;;;5064249;28;20044;-73
2022/01/31 05:12:17;;;;;;;17.65;2.92;;;5.10;99.90;;;;;;5061341;28;20048;-74
2022/01/31 05:14:42;;;;;;;15.80;3.42;;;5.10;99.90;;;;;;5078686;28;20036;-73
2022/01/31 05:17:09;;;;;;;14.30;2.80;;;5.20;99.90;;;;;;5071346;28;20089;-74
2022/01/31 05:19:35;;;;;;;22.23;3.58;;;5.20;99.90;;;;;;5069863;28;20044;-74
2022/01/31 05:22:00;;;;;;;13.65;3.05;;;5.30;99.90;;;;;;5066327;28;20059;-74
2022/01/31 05:24:26;;;;;;;13.90;2.60;;;5.30;99.90;;;;;;5059119;28;20051;-74
2022/01/31 05:26:53;;;;;;;15.88;3.85;;;5.30;99.90;;;;;;5078929;28;20090;-74
2022/01/31 05:29:19;;;;;;;18.42;2.83;;;5.40;99.90;;;;;;5070813;28;20044;-74
2022/01/31 05:31:44;;;;;;;12.55;2.28;;;5.40;99.90;;;;;;5072051;28;20476;-74
2022/01/31 05:34:12;;;;;;;15.93;2.30;;;5.50;99.90;;;;;;5071483;28;20040;-74
2022/01/31 05:36:40;;;;;;;13.13;2.35;;;5.40;99.90;;;;;;5065688;28;20050;-75
2022/01/31 05:39:06;;;;;;;9.63;1.73;;;5.40;99.90;;;;;;5071545;28;20064;-74
2022/01/31 05:41:32;;;;;;;7.35;1.27;;;5.40;99.90;;;;;;5070806;28;20071;-73
2022/01/31 05:43:58;;;;;;;7.63;1.63;;;5.40;99.90;;;;;;5070048;28;20391;-74
2022/01/31 05:46:23;;;;;;;4.75;1.35;;;5.40;99.90;;;;;;5067304;28;20076;-74
2022/01/31 05:48:49;;;;;;;5.90;1.35;;;5.40;99.90;;;;;;5055587;28;20037;-74
2022/01/31 05:51:20;;;;;;;5.32;1.42;;;5.30;99.90;;;;;;5071040;28;20052;-74
2022/01/31 05:53:47;;;;;;;6.38;1.10;;;5.30;99.90;;;;;;5070423;28;20041;-73
2022/01/31 05:56:14;;;;;;;5.38;1.02;;;5.20;99.90;;;;;;5071177;28;20108;-73
2022/01/31 05:58:40;;;;;;;7.28;1.20;;;5.30;99.90;;;;;;5065408;28;20045;-73
2022/01/31 06:01:06;;;;;;;4.63;0.88;;;5.30;99.90;;;;;;5059102;28;20045;-74
2022/01/31 06:03:32;;;;;;;8.43;1.20;;;5.40;99.90;;;;;;5066982;28;20532;-73
2022/01/31 06:05:58;;;;;;;8.93;1.65;;;5.30;99.90;;;;;;5053516;28;20036;-73
2022/01/31 06:08:23;;;;;;;7.10;1.17;;;5.30;99.90;;;;;;5070769;28;20127;-74
2022/01/31 06:10:49;;;;;;;9.23;1.38;;;5.30;99.90;;;;;;5054213;28;20101;-74
2022/01/31 06:13:25;;;;;;;7.53;1.17;;;5.20;99.90;;;;;;5060175;28;20504;-74
2022/01/31 06:15:51;;;;;;;8.07;1.33;;;5.20;99.90;;;;;;5068152;28;20044;-74
2022/01/31 06:18:17;;;;;;;5.07;1.23;;;5.20;99.90;;;;;;5052982;28;20044;-74
2022/01/31 06:20:44;;;;;;;8.77;1.35;;;5.10;99.90;;;;;;5074500;28;20074;-74
2022/01/31 06:23:10;;;;;;;9.32;1.75;;;5.20;99.90;;;;;;5066906;28;20047;-74
2022/01/31 06:25:36;;;;;;;5.75;1.42;;;5.20;99.90;;;;;;5063571;28;20051;-74
2022/01/31 06:28:04;;;;;;;10.23;1.60;;;5.20;99.90;;;;;;5061217;28;20058;-74
2022/01/31 06:30:29;;;;;;;8.18;1.02;;;5.20;99.90;;;;;;5070489;28;20044;-74
2022/01/31 06:32:55;;;;;;;9.88;2.15;;;5.20;99.90;;;;;;5052923;28;20494;-74
2022/01/31 06:35:21;;;;;;;9.85;1.73;;;5.20;99.90;;;;;;5067702;28;20040;-74
2022/01/31 06:37:46;;;;;;;9.43;1.52;;;5.20;99.90;;;;;;5069237;28;20036;-74
2022/01/31 06:40:12;;;;;;;9.75;1.40;;;5.20;99.90;;;;;;5051284;28;20036;-74
2022/01/31 06:42:38;;;;;;;6.30;1.67;;;5.30;99.90;;;;;;5070802;28;20466;-74
2022/01/31 06:45:05;;;;;;;9.63;1.50;;;5.20;99.90;;;;;;5070506;28;20122;-74
2022/01/31 06:47:31;;;;;;;5.40;1.38;;;5.30;99.90;;;;;;5066705;28;20037;-74
2022/01/31 06:49:59;;;;;;;6.68;1.20;;;5.20;99.90;;;;;;5047971;28;20477;-74
2022/01/31 06:52:25;;;;;;;9.00;1.35;;;5.20;99.90;;;;;;5059858;28;20060;-74
2022/01/31 06:54:52;;;;;;;8.32;1.60;;;5.30;99.90;;;;;;5065895;28;20144;-74
2022/01/31 06:57:19;;;;;;;6.28;1.33;;;5.30;99.90;;;;;;5061277;28;20124;-73
2022/01/31 06:59:45;;;;;;;5.75;1.05;;;5.40;99.90;;;;;;5064105;28;20033;-74
2022/01/31 07:02:10;;;;;;;5.30;1.00;;;5.30;99.90;;;;;;5066367;28;20063;-75
2022/01/31 07:04:36;;;;;;;9.13;1.20;;;5.30;99.90;;;;;;5075217;28;20182;-74
2022/01/31 07:07:03;;;;;;;4.80;1.00;;;5.30;99.90;;;;;;5064516;28;20049;-74
2022/01/31 07:09:28;;;;;;;6.20;1.40;;;5.30;99.90;;;;;;5065321;28;20126;-74
2022/01/31 07:11:58;;;;;;;7.85;1.40;;;5.30;99.90;;;;;;5067278;28;20118;-74
2022/01/31 07:14:32;;;;;;;10.55;1.52;;;5.30;99.90;;;;;;5067370;28;20102;-74
2022/01/31 07:17:00;;;;;;;7.28;1.42;;;5.20;99.90;;;;;;5068207;28;20044;-74
2022/01/31 07:19:29;;;;;;;8.18;1.63;;;5.30;99.90;;;;;;5070128;28;20956;-74
2022/01/31 07:21:55;;;;;;;7.43;1.42;;;5.30;99.90;;;;;;5068645;28;20049;-74
2022/01/31 07:24:25;;;;;;;11.05;1.48;;;5.20;99.90;;;;;;5074916;28;20473;-74
2022/01/31 07:26:52;;;;;;;10.52;1.60;;;5.20;99.90;;;;;;5080934;28;20045;-74
2022/01/31 07:29:19;;;;;;;12.85;1.95;;;5.20;99.90;;;;;;5067912;28;20036;-74
2022/01/31 07:31:46;;;;;;;12.25;1.45;;;5.30;99.90;;;;;;5068867;28;20033;-74
2022/01/31 07:34:14;;;;;;;8.57;1.58;;;5.30;99.90;;;;;;5072574;28;20036;-74
2022/01/31 07:36:41;;;;;;;7.40;1.50;;;5.30;99.90;;;;;;5049602;28;20470;-74
2022/01/31 07:39:07;;;;;;;9.15;1.55;;;5.30;99.90;;;;;;5050884;28;20374;-74
2022/01/31 07:41:32;;;;;;;8.52;2.08;;;5.30;99.90;;;;;;5039122;28;20040;-74
2022/01/31 07:43:59;;;;;;;10.18;1.45;;;5.40;99.90;;;;;;5068728;28;20529;-74
2022/01/31 07:46:25;;;;;;;8.18;1.42;;;5.40;99.90;;;;;;5052968;28;20072;-74
2022/01/31 07:48:53;;;;;;;12.57;1.60;;;5.40;99.90;;;;;;5049815;28;20079;-74
2022/01/31 07:51:18;;;;;;;6.57;1.00;;;5.40;99.90;;;;;;5049676;28;20553;-74
2022/01/31 07:53:44;;;;;;;16.20;2.53;;;5.30;99.90;;;;;;5061480;28;20082;-74
2022/01/31 07:56:11;;;;;;;9.13;1.60;;;5.40;99.90;;;;;;5046654;28;20051;-74
2022/01/31 07:58:38;;;;;;;6.32;1.50;;;5.40;99.90;;;;;;5069618;28;20043;-74
2022/01/31 08:01:04;;;;;;;9.40;1.27;;;5.30;99.90;;;;;;5051591;28;20036;-74
2022/01/31 08:03:30;;;;;;;6.38;1.10;;;5.30;99.90;;;;;;5053307;28;20062;-74
2022/01/31 08:05:57;;;;;;;8.40;1.92;;;5.30;99.90;;;;;;5058762;28;20570;-74
2022/01/31 08:08:23;;;;;;;4.72;1.17;;;5.30;99.90;;;;;;5061123;28;20033;-74
2022/01/31 08:10:50;;;;;;;7.50;1.15;;;5.30;99.90;;;;;;5048423;28;20389;-73
2022/01/31 08:13:15;;;;;;;7.53;1.20;;;5.30;99.90;;;;;;5065513;28;20086;-74
2022/01/31 08:15:47;;;;;;;4.82;0.95;;;5.30;99.90;;;;;;5054226;28;20036;-73
2022/01/31 08:18:13;;;;;;;4.38;1.10;;;5.30;99.90;;;;;;5075514;28;20044;-73
2022/01/31 08:20:39;;;;;;;8.90;1.40;;;5.40;99.90;;;;;;5066887;28;20901;-74
2022/01/31 08:23:05;;;;;;;8.50;1.42;;;5.40;99.90;;;;;;5068298;28;20052;-73
2022/01/31 08:25:35;;;;;;;8.45;1.40;;;5.50;99.90;;;;;;5083276;28;20040;-74
2022/01/31 08:28:06;;;;;;;7.72;1.10;;;5.50;99.90;;;;;;5046471;28;20036;-74
2022/01/31 08:30:41;;;;;;;6.35;1.20;;;5.60;99.90;;;;;;5073128;28;20044;-74
2022/01/31 08:33:14;;;;;;;4.85;1.20;;;5.60;99.90;;;;;;5068342;28;20048;-75
2022/01/31 08:35:50;;;;;;;9.07;1.50;;;5.60;99.90;;;;;;5068580;28;20051;-74
2022/01/31 08:38:17;;;;;;;10.10;1.52;;;5.60;99.90;;;;;;5064803;28;20398;-74
2022/01/31 08:40:43;;;;;;;5.28;1.65;;;5.60;99.90;;;;;;5079966;28;20595;-74
2022/01/31 08:43:09;;;;;;;8.35;1.25;;;5.50;99.90;;;;;;5069216;28;20087;-74
2022/01/31 08:45:35;;;;;;;10.27;1.77;;;5.50;99.90;;;;;;5080224;28;20044;-74
2022/01/31 08:48:04;;;;;;;10.95;1.60;;;5.60;99.90;;;;;;5073567;28;20474;-73
2022/01/31 08:50:30;;;;;;;6.78;1.38;;;5.70;99.90;;;;;;5066376;28;20052;-73
2022/01/31 08:52:56;;;;;;;8.25;1.23;;;5.70;99.90;;;;;;5064091;28;20067;-74
2022/01/31 08:55:22;;;;;;;7.43;1.30;;;5.80;99.90;;;;;;5072628;28;20044;-74
2022/01/31 08:57:52;;;;;;;8.57;1.48;;;5.80;99.90;;;;;;5052960;28;20694;-74
2022/01/31 09:00:18;;;;;;;8.10;1.60;;;5.90;99.90;;;;;;5046104;28;20165;-73
2022/01/31 09:02:59;;;;;;;6.88;1.20;;;6.00;99.90;;;;;;5054525;28;20041;-74
2022/01/31 09:05:24;;;;;;;4.55;1.50;;;6.00;99.90;;;;;;5053370;28;20040;-74
2022/01/31 09:07:50;;;;;;;7.15;1.40;;;6.00;99.90;;;;;;5065826;28;20048;-73
2022/01/31 09:10:15;;;;;;;6.88;1.92;;;6.00;99.90;;;;;;5062653;28;20072;-74
2022/01/31 09:12:41;;;;;;;6.90;1.40;;;6.10;99.90;;;;;;5060499;28;20037;-74
2022/01/31 09:15:07;;;;;;;8.25;1.42;;;6.10;99.90;;;;;;5072533;28;20044;-74
2022/01/31 09:17:34;;;;;;;6.72;1.52;;;6.20;99.90;;;;;;5065272;28;20083;-74
2022/01/31 09:19:59;;;;;;;6.05;1.50;;;6.30;99.90;;;;;;5068221;28;20432;-74
2022/01/31 09:22:25;;;;;;;9.15;1.42;;;6.30;99.90;;;;;;5061672;28;20037;-74
2022/01/31 09:24:51;;;;;;;6.93;1.15;;;6.30;99.90;;;;;;5077445;28;20716;-73
2022/01/31 09:27:17;;;;;;;6.97;1.40;;;6.30;99.90;;;;;;5092602;28;20362;-74
2022/01/31 09:29:43;;;;;;;12.55;1.40;;;6.30;99.90;;;;;;5074725;28;20481;-73
2022/01/31 09:32:10;;;;;;;10.70;1.30;;;6.30;99.90;;;;;;5072163;28;20051;-73
2022/01/31 09:34:36;;;;;;;7.00;1.48;;;6.30;99.90;;;;;;5071890;28;20049;-74
2022/01/31 09:37:02;;;;;;;11.23;1.60;;;6.40;99.90;;;;;;5072301;28;20102;-73
2022/01/31 09:39:27;;;;;;;8.65;1.40;;;6.50;99.90;;;;;;5053035;28;20090;-74
2022/01/31 09:41:56;;;;;;;9.68;1.65;;;6.60;99.90;;;;;;5072166;28;20417;-74
2022/01/31 09:49:31;;;;;;;9.13;1.50;;;6.60;99.90;;;;;;5071695;28;20423;-74
2022/01/31 09:51:57;;;;;;;11.20;1.30;;;6.80;99.90;;;;;;5062255;28;20295;-74
2022/01/31 09:54:25;;;;;;;8.90;1.60;;;6.70;99.90;;;;;;5065052;28;20044;-74
2022/01/31 09:56:53;;;;;;;8.20;1.50;;;6.80;99.90;;;;;;5067754;28;20431;-75
2022/01/31 09:59:19;;;;;;;9.65;1.50;;;6.60;99.90;;;;;;5053110;28;20045;-74
2022/01/31 10:01:52;;;;;;;10.85;1.60;;;6.40;99.90;;;;;;5049515;28;20045;-74
2022/01/31 10:04:30;;;;;;;11.52;1.33;;;6.40;99.90;;;;;;5060231;28;20413;-74
2022/01/31 10:06:57;;;;;;;7.20;1.33;;;6.50;99.90;;;;;;5057809;28;20514;-74
2022/01/31 10:09:28;;;;;;;4.82;1.23;;;6.50;99.90;;;;;;5062855;28;20043;-74
2022/01/31 10:12:12;;;;;;;9.50;1.55;;;6.40;99.90;;;;;;5047210;28;20049;-74
2022/01/31 10:17:37;;;;;;;9.80;1.92;;;6.50;99.90;;;;;;5064997;28;20173;-75
2022/01/31 10:20:17;;;;;;;7.38;1.17;;;6.50;99.90;;;;;;5066864;28;20389;-75
2022/01/31 10:22:43;;;;;;;6.97;1.15;;;6.60;99.90;;;;;;5070823;28;20044;-75
2022/01/31 10:25:13;;;;;;;13.20;1.52;;;6.60;99.90;;;;;;5068965;28;20385;-74
2022/01/31 10:27:44;;;;;;;9.10;1.80;;;6.70;99.90;;;;;;5052094;28;20032;-74
2022/01/31 10:30:23;;;;;;;9.73;1.13;;;6.80;99.90;;;;;;5042709;28;20043;-75
2022/01/31 10:32:50;;;;;;;6.45;1.20;;;6.90;99.90;;;;;;5064041;28;20044;-75
2022/01/31 10:35:22;;;;;;;11.65;2.03;;;6.90;99.90;;;;;;5051535;28;20072;-74
2022/01/31 10:37:48;;;;;;;;;;;7.10;99.90;;;;;;5068811;28;20055;-75
2022/01/31 10:46:11;;;;;;;11.10;1.85;;;7.30;99.90;;;;;;5054088;28;20045;-74
2022/01/31 10:53:58;;;;;;;14.20;1.90;;;7.40;99.90;;;;;;5061855;28;20054;-73
2022/01/31 10:56:25;;;;;;;12.35;2.28;;;7.40;99.90;;;;;;5062651;28;20060;-74
2022/01/31 10:58:57;;;;;;;11.35;1.85;;;7.50;99.90;;;;;;5064058;28;20036;-74
2022/01/31 11:01:24;;;;;;;9.68;1.10;;;7.50;99.90;;;;;;5071577;28;20070;-73
2022/01/31 11:03:51;;;;;;;9.75;1.58;;;7.50;99.90;;;;;;5064803;28;20067;-74
2022/01/31 11:06:17;;;;;;;10.65;1.20;;;7.50;99.90;;;;;;5063825;28;20087;-73
2022/01/31 11:08:43;;;;;;;8.80;1.33;;;7.60;99.90;;;;;;5059402;28;20063;-74
2022/01/31 11:11:08;;;;;;;9.00;1.85;;;7.60;99.90;;;;;;5065713;28;20117;-74
2022/01/31 11:13:36;;;;;;;8.35;1.17;;;7.70;99.90;;;;;;5062278;28;20040;-74
2022/01/31 11:16:04;;;;;;;9.23;1.60;;;7.70;99.90;;;;;;5061511;28;20048;-73
2022/01/31 11:18:32;;;;;;;9.25;1.75;;;7.80;99.90;;;;;;5051047;28;20047;-73
2022/01/31 11:21:01;;;;;;;7.68;1.40;;;7.80;99.90;;;;;;5067106;28;20071;-73
2022/01/31 11:23:28;;;;;;;8.52;1.20;;;7.90;99.90;;;;;;5058288;28;20647;-73
2022/01/31 11:25:56;;;;;;;10.02;1.95;;;8.00;99.90;;;;;;5034209;28;20044;-74
2022/01/31 11:28:25;;;;;;;10.30;1.60;;;7.90;99.90;;;;;;5045775;28;20036;-74
2022/01/31 11:30:53;;;;;;;9.45;1.80;;;7.90;99.90;;;;;;5040420;28;20052;-74
2022/01/31 11:33:19;;;;;;;10.60;1.30;;;7.90;99.90;;;;;;5057645;28;20032;-74
2022/01/31 11:35:46;;;;;;;5.93;1.30;;;8.00;99.90;;;;;;5040250;28;20072;-74
2022/01/31 11:38:11;;;;;;;11.70;2.50;;;8.10;99.90;;;;;;5054303;28;20086;-73
2022/01/31 11:40:37;;;;;;;8.10;1.95;;;8.10;99.90;;;;;;5064731;28;20033;-74
2022/01/31 11:43:03;;;;;;;11.98;2.00;;;8.10;99.90;;;;;;5064091;28;20510;-73
2022/01/31 11:45:41;;;;;;;13.55;1.85;;;8.10;99.90;;;;;;5059229;28;20474;-73
2022/01/31 11:48:17;;;;;;;10.07;1.92;;;8.10;99.90;;;;;;5059833;28;20058;-74
2022/01/31 11:50:46;;;;;;;11.75;2.25;;;8.30;99.90;;;;;;5065469;28;20113;-73
2022/01/31 11:53:12;;;;;;;10.20;2.22;;;8.40;99.90;;;;;;5063376;28;20494;-73
2022/01/31 11:55:38;;;;;;;13.60;2.00;;;8.50;99.90;;;;;;5067685;28;20043;-73
2022/01/31 11:58:17;;;;;;;10.25;1.67;;;8.60;99.90;;;;;;5044136;28;20064;-74
2022/01/31 12:00:45;;;;;;;11.60;3.05;;;8.60;99.90;;;;;;5064345;28;20037;-73
2022/01/31 12:03:14;;;;;;;12.40;2.58;;;8.30;99.90;;;;;;5053751;28;20086;-73
2022/01/31 12:05:40;;;;;;;12.07;1.85;;;8.30;99.90;;;;;;5063310;28;20128;-74
2022/01/31 12:08:08;;;;;;;12.52;1.95;;;8.30;99.90;;;;;;5074912;28;20071;-75
2022/01/31 12:10:41;;;;;;;11.52;2.10;;;8.50;99.90;;;;;;5066752;28;20473;-77
2022/01/31 12:13:32;;;;;;;13.73;2.28;;;8.50;99.90;;;;;;5059663;28;20058;-77
2022/01/31 12:16:44;;;;;;;13.82;2.35;;;8.50;99.90;;;;;;5058994;28;20094;-76
2022/01/31 12:19:00;;;;;;;6.40;1.25;;;8.50;99.90;;;;;;5050441;28;20037;-76
2022/01/31 12:22:00;;;;;;;12.32;1.52;;;8.40;99.90;;;;;;5057988;28;20397;-76
2022/01/31 12:24:29;;;;;;;11.10;2.40;;;8.40;99.90;;;;;;5064962;28;20155;-76
2022/01/31 12:26:58;;;;;;;14.27;2.35;;;8.60;99.90;;;;;;5067074;28;20037;-76
2022/01/31 12:29:31;;;;;;;9.02;1.80;;;8.40;99.90;;;;;;5049026;28;20093;-76
2022/01/31 12:32:21;;;;;;;8.90;1.55;;;8.50;99.90;;;;;;5063177;28;20698;-76
2022/01/31 12:35:03;;;;;;;13.65;2.65;;;8.40;99.90;;;;;;5082489;28;20087;-76
2022/01/31 12:37:34;;;;;;;10.90;2.13;;;8.50;99.90;;;;;;5060574;28;20098;-73
2022/01/31 12:40:05;;;;;;;18.55;2.15;;;8.50;99.90;;;;;;5046228;28;20032;-76
2022/01/31 12:45:22;;;;;;;13.07;1.55;;;8.30;99.90;;;;;;5063561;28;20047;-76
2022/01/31 12:48:13;;;;;;;12.65;2.20;;;8.30;99.90;;;;;;5064963;28;20083;-76
2022/01/31 12:50:41;;;;;;;11.60;2.47;;;8.40;99.90;;;;;;5057951;28;20102;-75
2022/01/31 12:53:22;;;;;;;15.25;3.42;;;8.30;99.90;;;;;;5065257;28;20525;-75
2022/01/31 12:56:10;;;;;;;11.05;2.00;;;8.20;99.90;;;;;;5077868;28;20052;-74
2022/01/31 12:58:42;;;;;;;11.05;2.55;;;8.30;99.90;;;;;;5062478;28;20037;-74
2022/01/31 13:01:39;;;;;;;15.77;2.30;;;8.30;99.90;;;;;;5056848;28;20112;-74
2022/01/31 13:04:19;;;;;;;13.55;2.25;;;8.20;99.90;;;;;;5040711;28;20040;-74
2022/01/31 13:06:50;;;;;;;14.02;2.40;;;8.30;99.90;;;;;;5065314;28;20373;-73
2022/01/31 13:09:24;;;;;;;18.00;2.65;;;8.30;99.90;;;;;;5042309;28;20534;-74
2022/01/31 13:12:00;;;;;;;16.85;2.55;;;8.30;99.90;;;;;;5046783;28;20055;-74
2022/01/31 13:14:31;;;;;;;12.88;3.17;;;8.40;99.90;;;;;;5049566;28;20040;-76
2022/01/31 13:17:10;;;;;;;13.18;2.08;;;8.30;99.90;;;;;;5066799;28;20041;-76
2022/01/31 13:19:41;;;;;;;20.45;3.03;;;8.30;99.90;;;;;;5065315;28;20044;-75